createdAt,value
2019-05-22T00:00:44.311Z,10.55
2019-05-22T00:03:17.890Z,10.38
2019-05-22T00:05:47.265Z,10.93
2019-05-22T00:08:17.525Z,10.30
2019-05-22T00:10:47.207Z,11.33
2019-05-22T00:13:18.652Z,11.10
2019-05-22T00:15:49.705Z,10.78
2019-05-22T00:18:19.475Z,11.45
2019-05-22T00:20:49.608Z,11.53
2019-05-22T00:23:18.812Z,12.25
2019-05-22T00:25:48.429Z,10.70
2019-05-22T00:28:18.458Z,11.55
2019-05-22T00:30:49.215Z,10.75
2019-05-22T00:33:18.147Z,10.23
2019-05-22T00:35:47.473Z,10.82
2019-05-22T00:38:17.712Z,10.45
2019-05-22T00:40:52.286Z,9.90
2019-05-22T00:43:32.314Z,10.13
2019-05-22T00:46:04.863Z,10.28
2019-05-22T00:48:35.711Z,10.23
2019-05-22T00:51:11.876Z,9.93
2019-05-22T00:53:48.732Z,11.05
2019-05-22T00:56:29.799Z,10.15
2019-05-22T00:59:16.935Z,10.38
2019-05-22T01:01:46.064Z,11.53
2019-05-22T01:04:16.646Z,11.50
2019-05-22T01:06:46.923Z,10.10
2019-05-22T01:09:25.605Z,10.55
2019-05-22T01:11:57.050Z,10.05
2019-05-22T01:14:42.033Z,9.78
2019-05-22T01:17:00.243Z,10.23
2019-05-22T01:19:30.244Z,9.70
2019-05-22T01:22:01.814Z,10.13
2019-05-22T01:24:33.288Z,9.78
2019-05-22T01:27:04.256Z,7.87
2019-05-22T01:29:34.515Z,9.98
2019-05-22T01:32:22.538Z,10.75
2019-05-22T01:34:52.985Z,10.95
2019-05-22T01:37:22.075Z,10.30
2019-05-22T01:39:55.885Z,9.95
2019-05-22T01:42:29.059Z,10.35
2019-05-22T01:45:05.982Z,11.33
2019-05-22T01:47:48.638Z,9.60
2019-05-22T01:50:21.483Z,9.20
2019-05-22T01:52:52.019Z,10.53
2019-05-22T01:55:23.548Z,10.10
2019-05-22T01:57:53.656Z,10.48
2019-05-22T02:00:24.486Z,9.55
2019-05-22T02:02:53.474Z,11.15
2019-05-22T02:05:23.889Z,11.83
2019-05-22T02:07:57.281Z,10.30
2019-05-22T02:10:35.296Z,11.60
2019-05-22T02:13:05.819Z,12.30
2019-05-22T02:15:35.608Z,13.05
2019-05-22T02:18:07.804Z,13.98
2019-05-22T02:20:39.985Z,13.75
2019-05-22T02:23:09.009Z,13.90
2019-05-22T02:25:38.361Z,16.60
2019-05-22T02:28:09.134Z,16.77
2019-05-22T02:30:40.629Z,15.75
2019-05-22T02:33:12.949Z,14.15
2019-05-22T02:35:42.211Z,15.88
2019-05-22T02:38:12.445Z,17.02
2019-05-22T02:40:43.512Z,16.75
2019-05-22T02:43:12.809Z,15.98
2019-05-22T02:45:42.277Z,15.45
2019-05-22T02:48:12.019Z,14.53
2019-05-22T02:50:41.928Z,13.30
2019-05-22T02:53:13.693Z,12.43
2019-05-22T02:55:42.318Z,12.13
2019-05-22T02:58:14.054Z,12.28
2019-05-22T03:00:48.834Z,13.65
2019-05-22T03:03:17.820Z,12.63
2019-05-22T03:05:46.819Z,11.73
2019-05-22T03:08:16.327Z,11.83
2019-05-22T03:10:46.258Z,12.23
2019-05-22T03:13:16.878Z,12.05
2019-05-22T03:15:46.669Z,11.25
2019-05-22T03:18:17.190Z,11.33
2019-05-22T03:20:48.107Z,11.03
2019-05-22T03:23:36.900Z,10.68
2019-05-22T03:26:08.206Z,11.63
2019-05-22T03:28:39.035Z,11.93
2019-05-22T03:31:09.322Z,12.33
2019-05-22T03:33:38.341Z,14.10
2019-05-22T03:36:15.554Z,13.48
2019-05-22T03:38:45.206Z,12.73
2019-05-22T03:41:15.817Z,12.28
2019-05-22T03:43:46.214Z,12.07
2019-05-22T03:46:23.855Z,11.73
2019-05-22T03:48:53.628Z,14.73
2019-05-22T03:51:24.113Z,14.28
2019-05-22T03:53:55.504Z,14.58
2019-05-22T03:56:25.649Z,15.55
2019-05-22T03:58:55.862Z,14.10
2019-05-22T04:01:26.229Z,14.43
2019-05-22T04:03:55.834Z,14.40
2019-05-22T04:06:25.556Z,14.75
2019-05-22T04:08:55.197Z,13.58
2019-05-22T04:11:27.192Z,13.25
2019-05-22T04:13:56.252Z,12.60
2019-05-22T04:16:24.962Z,12.45
2019-05-22T04:18:54.390Z,10.95
2019-05-22T04:21:22.910Z,10.53
2019-05-22T04:23:51.394Z,9.00
2019-05-22T04:26:20.866Z,9.30
2019-05-22T04:28:52.955Z,8.70
2019-05-22T04:31:30.948Z,8.58
2019-05-22T04:33:59.559Z,7.28
2019-05-22T04:36:29.520Z,7.15
2019-05-22T04:39:01.543Z,7.12
2019-05-22T04:41:32.485Z,7.97
2019-05-22T04:44:01.683Z,7.17
2019-05-22T04:46:31.678Z,7.22
2019-05-22T04:49:02.043Z,7.42
2019-05-22T04:51:31.160Z,7.65
2019-05-22T04:53:59.922Z,7.72
2019-05-22T04:56:29.236Z,7.03
2019-05-22T04:58:59.807Z,7.42
2019-05-22T05:01:29.002Z,8.08
2019-05-22T05:03:58.295Z,7.92
2019-05-22T05:06:29.987Z,7.47
2019-05-22T05:08:58.630Z,7.33
2019-05-22T05:11:27.565Z,7.40
2019-05-22T05:13:56.517Z,7.72
2019-05-22T05:16:26.737Z,7.20
2019-05-22T05:18:55.554Z,7.70
2019-05-22T05:21:24.081Z,7.60
2019-05-22T05:23:53.130Z,9.38
2019-05-22T05:26:22.537Z,8.38
2019-05-22T05:28:51.951Z,7.75
2019-05-22T05:31:20.850Z,8.33
2019-05-22T05:34:04.862Z,7.10
2019-05-22T05:36:34.472Z,6.75
2019-05-22T05:39:07.987Z,7.42
2019-05-22T05:41:37.240Z,8.35
2019-05-22T05:44:06.736Z,6.40
2019-05-22T05:46:36.096Z,6.00
2019-05-22T05:49:05.500Z,7.85
2019-05-22T05:51:37.214Z,5.60
2019-05-22T05:54:09.301Z,6.10
2019-05-22T05:56:40.793Z,5.70
2019-05-22T05:59:10.483Z,5.78
2019-05-22T06:01:43.757Z,5.75
2019-05-22T06:04:13.256Z,5.67
2019-05-22T06:06:49.120Z,6.12
2019-05-22T06:09:25.998Z,6.33
2019-05-22T06:11:59.502Z,6.78
2019-05-22T06:14:31.869Z,5.75
2019-05-22T06:17:17.641Z,5.70
2019-05-22T06:19:52.246Z,6.10
2019-05-22T06:22:22.700Z,5.47
2019-05-22T06:25:03.423Z,5.92
2019-05-22T06:27:33.759Z,5.97
2019-05-22T06:30:05.071Z,5.20
2019-05-22T06:32:57.761Z,5.72
2019-05-22T06:35:30.022Z,5.45
2019-05-22T06:38:24.400Z,5.55
2019-05-22T06:40:53.401Z,5.78
2019-05-22T06:43:25.937Z,6.12
2019-05-22T06:45:55.033Z,5.70
2019-05-22T06:48:24.209Z,6.00
2019-05-22T06:50:53.273Z,6.28
2019-05-22T06:53:22.367Z,5.92
2019-05-22T06:55:51.297Z,5.85
2019-05-22T06:58:20.473Z,5.45
2019-05-22T07:00:49.350Z,6.95
2019-05-22T07:03:18.014Z,6.53
2019-05-22T07:05:48.908Z,6.45
2019-05-22T07:08:17.618Z,5.58
2019-05-22T07:10:46.727Z,5.30
2019-05-22T07:13:16.828Z,6.25
2019-05-22T07:15:46.386Z,5.75
2019-05-22T07:18:18.059Z,5.55
2019-05-22T07:20:47.546Z,5.75
2019-05-22T07:23:20.143Z,5.65
2019-05-22T07:25:48.972Z,6.97
2019-05-22T07:28:19.639Z,6.00
2019-05-22T07:30:48.802Z,5.78
2019-05-22T07:33:18.666Z,6.78
2019-05-22T07:36:07.810Z,7.05
2019-05-22T07:38:20.046Z,7.65
2019-05-22T07:40:51.029Z,8.60
2019-05-22T07:43:23.124Z,8.25
2019-05-22T07:45:52.755Z,7.03
2019-05-22T07:48:23.978Z,8.35
2019-05-22T07:50:55.307Z,8.10
2019-05-22T07:53:25.912Z,8.38
2019-05-22T07:55:57.919Z,7.45
2019-05-22T07:58:29.739Z,9.18
2019-05-22T08:00:59.282Z,8.93
2019-05-22T08:03:30.534Z,7.87
2019-05-22T08:06:00.188Z,7.53
2019-05-22T08:08:31.722Z,6.95
2019-05-22T08:11:00.820Z,6.83
2019-05-22T08:13:31.091Z,7.97
2019-05-22T08:15:59.690Z,7.40
2019-05-22T08:18:30.886Z,8.08
2019-05-22T08:20:59.337Z,7.87
2019-05-22T08:23:28.565Z,8.78
2019-05-22T08:25:59.453Z,7.00
2019-05-22T08:28:31.808Z,8.05
2019-05-22T08:31:01.187Z,7.92
2019-05-22T08:33:32.353Z,7.78
2019-05-22T08:36:03.038Z,8.70
2019-05-22T08:38:33.104Z,8.23
2019-05-22T08:41:04.330Z,7.65
2019-05-22T08:43:56.047Z,8.25
2019-05-22T08:46:06.537Z,7.17
2019-05-22T08:48:38.146Z,6.72
2019-05-22T08:51:08.381Z,7.08
2019-05-22T08:53:47.297Z,8.45
2019-05-22T08:56:08.770Z,7.20
2019-05-22T08:58:41.747Z,8.25
2019-05-22T09:01:11.742Z,7.78
2019-05-22T09:03:41.358Z,6.53
2019-05-22T09:06:10.329Z,7.58
2019-05-22T09:08:39.353Z,7.37
2019-05-22T09:11:08.608Z,7.45
2019-05-22T09:13:39.218Z,8.20
2019-05-22T09:16:09.219Z,6.72
2019-05-22T09:18:38.662Z,7.50
2019-05-22T09:21:07.677Z,7.05
2019-05-22T09:23:39.113Z,8.25
2019-05-22T09:26:08.021Z,8.60
2019-05-22T09:28:37.243Z,8.13
2019-05-22T09:31:05.827Z,8.88
2019-05-22T09:33:36.817Z,8.10
2019-05-22T09:36:05.740Z,8.93
2019-05-22T09:38:35.983Z,9.35
2019-05-22T09:41:06.571Z,7.87
2019-05-22T09:43:35.587Z,8.70
2019-05-22T09:46:04.806Z,8.88
2019-05-22T09:48:45.590Z,8.00
2019-05-22T09:51:05.830Z,9.73
2019-05-22T09:53:36.621Z,10.03
2019-05-22T09:56:08.190Z,10.28
2019-05-22T09:58:38.583Z,9.85
2019-05-22T10:01:11.295Z,10.32
2019-05-22T10:03:39.469Z,10.80
2019-05-22T10:06:08.309Z,10.15
2019-05-22T10:08:37.358Z,11.10
2019-05-22T10:11:05.822Z,10.50
2019-05-22T10:13:34.400Z,10.50
2019-05-22T10:16:03.400Z,12.35
2019-05-22T10:18:31.916Z,11.25
2019-05-22T10:21:00.845Z,11.95
2019-05-22T10:23:30.756Z,12.25
2019-05-22T10:25:59.462Z,11.33
2019-05-22T10:28:28.955Z,12.05
2019-05-22T10:30:58.384Z,11.00
2019-05-22T10:33:28.403Z,10.82
2019-05-22T10:35:57.362Z,10.88
2019-05-22T10:38:26.256Z,11.85
2019-05-22T10:40:58.897Z,12.28
2019-05-22T10:43:26.132Z,12.03
2019-05-22T10:45:54.625Z,11.80
2019-05-22T10:48:23.210Z,11.57
2019-05-22T10:50:52.265Z,11.95
2019-05-22T10:53:33.060Z,12.23
2019-05-22T10:55:53.322Z,11.20
2019-05-22T10:58:21.967Z,11.73
2019-05-22T11:00:51.361Z,11.50
2019-05-22T11:03:20.662Z,12.68
2019-05-22T11:06:05.740Z,13.13
2019-05-22T11:08:22.999Z,13.60
2019-05-22T11:10:53.318Z,13.10
2019-05-22T11:13:22.398Z,12.82
2019-05-22T11:15:51.960Z,11.45
2019-05-22T11:18:20.419Z,10.50
2019-05-22T11:20:49.326Z,11.25
2019-05-22T11:23:17.847Z,11.03
2019-05-22T11:25:46.491Z,11.20
2019-05-22T11:28:16.836Z,11.03
2019-05-22T11:30:46.178Z,10.18
2019-05-22T11:33:14.694Z,12.35
2019-05-22T11:35:44.046Z,13.08
2019-05-22T11:38:13.346Z,12.73
2019-05-22T11:40:44.485Z,11.60
2019-05-22T11:43:13.028Z,10.25
2019-05-22T11:45:45.389Z,8.35
2019-05-22T11:48:14.261Z,10.65
2019-05-22T11:50:43.933Z,9.05
2019-05-22T11:53:14.442Z,8.55
2019-05-22T11:55:45.869Z,9.28
2019-05-22T11:58:13.809Z,9.20
2019-05-22T12:00:42.417Z,9.83
2019-05-22T12:03:12.624Z,8.30
2019-05-22T12:05:41.779Z,7.95
2019-05-22T12:08:13.630Z,8.08
2019-05-22T12:10:44.476Z,7.60
2019-05-22T12:13:13.411Z,7.95
2019-05-22T12:15:42.846Z,7.95
2019-05-22T12:18:30.957Z,7.90
2019-05-22T12:21:00.031Z,7.25
2019-05-22T12:23:29.382Z,7.75
2019-05-22T12:25:57.912Z,7.20
2019-05-22T12:28:29.719Z,7.65
2019-05-22T12:30:59.253Z,7.70
2019-05-22T12:33:29.771Z,7.15
2019-05-22T12:35:59.671Z,7.67
2019-05-22T12:38:31.021Z,7.42
2019-05-22T12:41:01.768Z,8.53
2019-05-22T12:43:32.110Z,7.58
2019-05-22T12:46:02.353Z,8.15
2019-05-22T12:48:33.976Z,8.25
2019-05-22T12:51:04.600Z,8.93
2019-05-22T12:53:33.326Z,9.23
2019-05-22T12:56:02.387Z,8.13
2019-05-22T12:58:32.290Z,8.20
2019-05-22T13:01:01.205Z,6.67
2019-05-22T13:03:30.400Z,6.50
2019-05-22T13:05:59.435Z,7.80
2019-05-22T13:08:29.196Z,8.03
2019-05-22T13:10:58.971Z,6.83
2019-05-22T13:13:27.963Z,7.85
2019-05-22T13:15:59.039Z,7.87
2019-05-22T13:18:27.888Z,7.03
2019-05-22T13:20:57.415Z,7.05
2019-05-22T13:23:30.914Z,6.70
2019-05-22T13:25:59.792Z,7.25
2019-05-22T13:28:30.431Z,6.12
2019-05-22T13:31:00.414Z,5.28
2019-05-22T13:33:29.354Z,5.15
2019-05-22T13:35:58.545Z,6.22
2019-05-22T13:38:28.336Z,5.00
2019-05-22T13:40:57.181Z,5.53
2019-05-22T13:43:27.788Z,6.67
2019-05-22T13:45:57.075Z,8.78
2019-05-22T13:48:26.246Z,8.33
2019-05-22T13:50:56.308Z,6.97
2019-05-22T13:53:25.098Z,7.47
2019-05-22T13:55:54.005Z,8.30
2019-05-22T13:58:26.110Z,7.53
2019-05-22T14:00:55.036Z,7.95
2019-05-22T14:03:25.197Z,8.00
2019-05-22T14:05:54.767Z,8.40
2019-05-22T14:08:23.745Z,8.65
2019-05-22T14:10:54.065Z,8.18
2019-05-22T14:13:25.524Z,7.00
2019-05-22T14:15:56.960Z,7.15
2019-05-22T14:18:25.189Z,7.20
2019-05-22T14:20:55.030Z,7.05
2019-05-22T14:23:25.338Z,6.40
2019-05-22T14:25:54.673Z,7.08
2019-05-22T14:28:24.896Z,5.62
2019-05-22T14:30:53.847Z,5.60
2019-05-22T14:33:22.783Z,5.62
2019-05-22T14:35:52.433Z,3.72
2019-05-22T14:38:21.457Z,4.12
2019-05-22T14:40:50.377Z,3.55
2019-05-22T14:43:19.147Z,3.47
2019-05-22T14:45:48.793Z,4.55
2019-05-22T14:48:18.027Z,5.15
2019-05-22T14:50:47.673Z,5.33
2019-05-22T14:53:17.778Z,5.42
2019-05-22T14:55:47.917Z,4.47
2019-05-22T14:58:18.935Z,4.67
2019-05-22T15:00:48.585Z,4.50
2019-05-22T15:03:17.754Z,4.10
2019-05-22T15:05:46.249Z,5.05
2019-05-22T15:08:14.877Z,5.10
2019-05-22T15:10:45.576Z,5.47
2019-05-22T15:13:23.289Z,5.55
2019-05-22T15:15:52.091Z,5.67
2019-05-22T15:18:20.586Z,6.42
2019-05-22T15:20:55.674Z,7.30
2019-05-22T15:23:25.197Z,8.38
2019-05-22T15:25:57.702Z,8.58
2019-05-22T15:28:27.240Z,7.85
2019-05-22T15:30:59.544Z,8.40
2019-05-22T15:33:29.174Z,10.03
2019-05-22T15:35:58.271Z,9.00
2019-05-22T15:38:28.595Z,10.15
2019-05-22T15:40:57.120Z,8.70
2019-05-22T15:43:27.111Z,8.58
2019-05-22T15:45:59.050Z,8.10
2019-05-22T15:48:31.357Z,7.45
2019-05-22T15:51:03.178Z,7.60
2019-05-22T15:53:33.582Z,7.80
2019-05-22T15:56:04.287Z,7.42
2019-05-22T15:58:33.857Z,6.30
2019-05-22T16:01:04.753Z,6.78
2019-05-22T16:03:35.107Z,5.33
2019-05-22T16:06:08.246Z,4.40
2019-05-22T16:08:37.760Z,4.37
2019-05-22T16:11:09.241Z,2.75
2019-05-22T16:13:38.762Z,3.33
2019-05-22T16:16:09.880Z,3.58
2019-05-22T16:18:40.403Z,4.90
2019-05-22T16:21:12.258Z,4.40
2019-05-22T16:23:41.783Z,4.87
2019-05-22T16:26:13.418Z,4.58
2019-05-22T16:28:45.224Z,4.35
2019-05-22T16:31:16.043Z,3.70
2019-05-22T16:33:47.312Z,4.45
2019-05-22T16:36:17.427Z,4.87
2019-05-22T16:38:47.651Z,4.00
2019-05-22T16:41:18.193Z,3.65
2019-05-22T16:43:49.937Z,2.58
2019-05-22T16:46:20.617Z,2.55
2019-05-22T16:48:49.421Z,1.92
2019-05-22T16:51:19.889Z,2.27
2019-05-22T16:53:53.566Z,1.60
2019-05-22T16:56:24.799Z,0.98
2019-05-22T16:58:54.763Z,1.10
2019-05-22T17:01:26.097Z,0.90
2019-05-22T17:03:57.882Z,1.02
2019-05-22T17:06:26.738Z,1.10
2019-05-22T17:08:58.161Z,1.60
2019-05-22T17:11:29.119Z,1.22
2019-05-22T17:14:01.677Z,2.12
2019-05-22T17:16:32.593Z,2.40
2019-05-22T17:19:01.471Z,2.20
2019-05-22T17:21:30.575Z,2.35
2019-05-22T17:24:02.521Z,2.70
2019-05-22T17:26:30.993Z,2.67
2019-05-22T17:29:00.227Z,3.45
2019-05-22T17:31:29.872Z,2.83
2019-05-22T17:33:59.390Z,3.17
2019-05-22T17:36:29.087Z,3.02
2019-05-22T17:38:59.614Z,3.05
2019-05-22T17:41:33.023Z,3.60
2019-05-22T17:44:02.171Z,3.80
2019-05-22T17:46:32.823Z,4.70
2019-05-22T17:49:02.204Z,4.95
2019-05-22T17:51:31.843Z,5.08
2019-05-22T17:54:01.136Z,4.90
2019-05-22T17:56:32.260Z,5.13
2019-05-22T17:59:00.686Z,4.90
2019-05-22T18:01:30.211Z,5.03
2019-05-22T18:03:59.211Z,5.45
2019-05-22T18:06:28.404Z,4.97
2019-05-22T18:08:57.150Z,5.35
2019-05-22T18:11:27.489Z,4.78
2019-05-22T18:14:00.765Z,4.03
2019-05-22T18:16:29.744Z,3.80
2019-05-22T18:18:59.012Z,4.20
2019-05-22T18:21:27.819Z,3.42
2019-05-22T18:23:56.785Z,3.90
2019-05-22T18:26:26.090Z,3.33
2019-05-22T18:28:55.091Z,3.02
2019-05-22T18:31:24.467Z,2.95
2019-05-22T18:33:52.998Z,3.10
2019-05-22T18:36:21.485Z,3.27
2019-05-22T18:38:50.028Z,3.47
2019-05-22T18:41:18.972Z,3.25
2019-05-22T18:43:48.507Z,2.58
2019-05-22T18:46:17.857Z,2.72
2019-05-22T18:48:48.314Z,2.85
2019-05-22T18:51:17.233Z,3.00
2019-05-22T18:53:46.261Z,2.15
2019-05-22T18:56:14.813Z,3.05
2019-05-22T18:58:44.127Z,2.45
2019-05-22T19:01:16.199Z,2.90
2019-05-22T19:03:43.580Z,2.75
2019-05-22T19:06:12.377Z,2.58
2019-05-22T19:08:41.522Z,2.70
2019-05-22T19:11:10.046Z,2.92
2019-05-22T19:13:38.890Z,2.15
2019-05-22T19:16:07.404Z,2.25
2019-05-22T19:18:36.158Z,2.27
2019-05-22T19:21:05.441Z,2.17
2019-05-22T19:23:35.336Z,2.40
2019-05-22T19:26:05.891Z,2.40
2019-05-22T19:28:43.397Z,2.37
2019-05-22T19:31:08.107Z,2.27
2019-05-22T19:33:36.674Z,2.75
2019-05-22T19:36:05.603Z,2.55
2019-05-22T19:38:35.841Z,2.55
2019-05-22T19:41:05.999Z,2.08
2019-05-22T19:43:34.756Z,2.20
2019-05-22T19:46:03.618Z,2.37
2019-05-22T19:48:32.828Z,2.30
2019-05-22T19:51:02.192Z,2.52
2019-05-22T19:53:30.934Z,2.80
2019-05-22T19:55:59.722Z,2.65
2019-05-22T19:58:28.760Z,2.52
2019-05-22T20:00:57.282Z,2.42
2019-05-22T20:03:26.527Z,2.87
2019-05-22T20:05:55.192Z,2.85
2019-05-22T20:08:24.370Z,3.00
2019-05-22T20:10:54.488Z,3.12
2019-05-22T20:13:24.487Z,2.85
2019-05-22T20:15:53.731Z,3.02
2019-05-22T20:18:22.508Z,3.65
2019-05-22T20:20:52.132Z,2.60
2019-05-22T20:23:34.621Z,2.92
2019-05-22T20:25:52.554Z,2.80
2019-05-22T20:28:25.083Z,3.30
2019-05-22T20:30:55.654Z,2.85
2019-05-22T20:33:27.119Z,2.98
2019-05-22T20:35:55.709Z,3.85
2019-05-22T20:38:27.751Z,3.35
2019-05-22T20:40:56.261Z,3.90
2019-05-22T20:43:25.457Z,4.20
2019-05-22T20:45:55.934Z,3.67
2019-05-22T20:48:34.195Z,3.92
2019-05-22T20:51:04.549Z,3.65
2019-05-22T20:53:53.064Z,3.98
2019-05-22T20:56:07.828Z,3.60
2019-05-22T20:58:36.911Z,3.87
2019-05-22T21:01:07.796Z,3.85
2019-05-22T21:03:37.044Z,4.37
2019-05-22T21:06:08.514Z,4.62
2019-05-22T21:08:38.110Z,20.40
2019-05-22T21:11:08.571Z,9.58
2019-05-22T21:13:38.655Z,5.67
2019-05-22T21:16:07.924Z,7.10
2019-05-22T21:18:45.209Z,8.68
2019-05-22T21:21:15.937Z,6.10
2019-05-22T21:23:44.759Z,8.55
2019-05-22T21:26:25.163Z,5.10
2019-05-22T21:28:54.602Z,4.92
2019-05-22T21:31:24.743Z,4.58
2019-05-22T21:33:54.443Z,4.97
2019-05-22T21:36:24.635Z,4.40
2019-05-22T21:38:53.345Z,4.20
2019-05-22T21:41:22.441Z,4.10
2019-05-22T21:43:52.148Z,5.00
2019-05-22T21:46:21.135Z,3.42
2019-05-22T21:48:51.093Z,4.55
2019-05-22T21:51:20.160Z,4.12
2019-05-22T21:53:49.054Z,4.67
2019-05-22T21:56:18.244Z,4.15
2019-05-22T21:58:48.672Z,4.40
2019-05-22T22:01:18.910Z,4.67
2019-05-22T22:03:58.294Z,4.65
2019-05-22T22:06:28.689Z,4.10
2019-05-22T22:08:58.188Z,4.40
2019-05-22T22:11:29.976Z,4.03
2019-05-22T22:13:59.578Z,4.55
2019-05-22T22:16:30.876Z,5.03
2019-05-22T22:19:01.248Z,4.85
2019-05-22T22:21:29.984Z,6.03
2019-05-22T22:23:58.658Z,6.12
2019-05-22T22:26:29.073Z,4.50
2019-05-22T22:28:57.760Z,7.83
2019-05-22T22:31:28.260Z,8.33
2019-05-22T22:33:59.797Z,5.72
2019-05-22T22:36:28.794Z,7.12
2019-05-22T22:38:58.876Z,8.63
2019-05-22T22:41:28.368Z,7.25
2019-05-22T22:43:58.417Z,6.60
2019-05-22T22:46:44.488Z,7.47
2019-05-22T22:49:16.250Z,6.03
2019-05-22T22:51:47.470Z,7.17
2019-05-22T22:54:17.061Z,7.75
2019-05-22T22:56:46.718Z,5.83
2019-05-22T22:59:16.167Z,7.37
2019-05-22T23:01:48.437Z,8.20
2019-05-22T23:04:18.036Z,5.72
2019-05-22T23:06:46.917Z,8.33
2019-05-22T23:09:16.627Z,6.28
2019-05-22T23:11:45.905Z,8.43
2019-05-22T23:14:16.076Z,7.50
2019-05-22T23:16:44.858Z,7.17
2019-05-22T23:19:16.949Z,7.03
2019-05-22T23:21:45.685Z,7.92
2019-05-22T23:24:16.831Z,7.17
2019-05-22T23:26:47.002Z,8.15
2019-05-22T23:29:17.701Z,6.25
2019-05-22T23:31:46.547Z,6.23
2019-05-22T23:34:15.448Z,7.10
2019-05-22T23:36:45.481Z,5.83
2019-05-22T23:39:15.593Z,6.83
2019-05-22T23:41:47.257Z,6.50
2019-05-22T23:44:21.029Z,7.20
2019-05-22T23:46:49.868Z,6.10
2019-05-22T23:49:19.394Z,5.30
2019-05-22T23:51:48.712Z,6.00
2019-05-22T23:54:17.560Z,4.95
2019-05-22T23:56:46.821Z,7.25
2019-05-22T23:59:16.719Z,5.85
